sensor_id;sensor_type;location;lat;lon;timestamp;pressure;altitude;pressure_sealevel;temperature;humidity
30708;BME280;17458;48.958;8.284;2023-11-22T00:01:49;100839.81;;;10.27;70.93
30708;BME280;17458;48.958;8.284;2023-11-22T00:04:33;100845.59;;;10.06;71.14
30708;BME280;17458;48.958;8.284;2023-11-22T00:07:17;100850.34;;;9.82;71.58
30708;BME280;17458;48.958;8.284;2023-11-22T00:10:01;100862.38;;;9.62;70.88
30708;BME280;17458;48.958;8.284;2023-11-22T00:12:45;100852.81;;;9.36;71.49
30708;BME280;17458;48.958;8.284;2023-11-22T00:15:29;100850.31;;;9.67;71.07
30708;BME280;17458;48.958;8.284;2023-11-22T00:18:13;100866.31;;;9.54;71.36
30708;BME280;17458;48.958;8.284;2023-11-22T00:20:57;100856.78;;;9.57;70.79
30708;BME280;17458;48.958;8.284;2023-11-22T00:23:43;100871.16;;;9.33;71.58
30708;BME280;17458;48.958;8.284;2023-11-22T00:26:27;100861.34;;;9.60;71.15
30708;BME280;17458;48.958;8.284;2023-11-22T00:29:14;100869.47;;;9.48;71.11
30708;BME280;17458;48.958;8.284;2023-11-22T00:31:59;100869.81;;;9.68;71.68
30708;BME280;17458;48.958;8.284;2023-11-22T00:34:43;100887.41;;;9.24;73.17
30708;BME280;17458;48.958;8.284;2023-11-22T00:37:28;100889.75;;;9.20;73.53
30708;BME280;17458;48.958;8.284;2023-11-22T00:40:12;100891.97;;;9.27;73.74
30708;BME280;17458;48.958;8.284;2023-11-22T00:42:57;100895.09;;;9.07;74.97
30708;BME280;17458;48.958;8.284;2023-11-22T00:45:42;100894.09;;;8.92;75.75
30708;BME280;17458;48.958;8.284;2023-11-22T00:48:26;100898.88;;;9.10;74.97
30708;BME280;17458;48.958;8.284;2023-11-22T00:51:09;100909.22;;;9.20;74.70
30708;BME280;17458;48.958;8.284;2023-11-22T00:53:54;100915.06;;;9.02;75.04
30708;BME280;17458;48.958;8.284;2023-11-22T00:56:38;100920.94;;;9.24;74.61
30708;BME280;17458;48.958;8.284;2023-11-22T00:59:23;100912.69;;;8.52;73.55
30708;BME280;17458;48.958;8.284;2023-11-22T01:02:06;100931.09;;;8.90;73.96
30708;BME280;17458;48.958;8.284;2023-11-22T01:04:52;100931.19;;;8.52;73.71
30708;BME280;17458;48.958;8.284;2023-11-22T01:07:37;100930.88;;;8.87;72.48
30708;BME280;17458;48.958;8.284;2023-11-22T01:10:21;100938.09;;;8.37;73.01
30708;BME280;17458;48.958;8.284;2023-11-22T01:13:06;100935.69;;;8.15;73.08
30708;BME280;17458;48.958;8.284;2023-11-22T01:15:50;100943.47;;;8.00;73.27
30708;BME280;17458;48.958;8.284;2023-11-22T01:18:34;100948.97;;;8.03;73.41
30708;BME280;17458;48.958;8.284;2023-11-22T01:21:18;100946.97;;;7.99;73.03
30708;BME280;17458;48.958;8.284;2023-11-22T01:24:03;100942.50;;;8.11;72.26
30708;BME280;17458;48.958;8.284;2023-11-22T01:26:47;100949.34;;;8.21;72.56
30708;BME280;17458;48.958;8.284;2023-11-22T01:29:31;100967.97;;;7.73;73.94
30708;BME280;17458;48.958;8.284;2023-11-22T01:32:15;100960.28;;;7.76;73.86
30708;BME280;17458;48.958;8.284;2023-11-22T01:35:01;100961.53;;;8.19;73.18
30708;BME280;17458;48.958;8.284;2023-11-22T01:37:45;100962.25;;;8.41;72.49
30708;BME280;17458;48.958;8.284;2023-11-22T01:40:30;100964.41;;;8.22;72.83
30708;BME280;17458;48.958;8.284;2023-11-22T01:43:16;100965.91;;;7.80;73.34
30708;BME280;17458;48.958;8.284;2023-11-22T01:46:01;100957.53;;;7.99;72.95
30708;BME280;17458;48.958;8.284;2023-11-22T01:48:45;100982.19;;;8.11;72.46
30708;BME280;17458;48.958;8.284;2023-11-22T01:51:30;100983.09;;;8.37;72.72
30708;BME280;17458;48.958;8.284;2023-11-22T01:54:14;100981.06;;;8.46;72.32
30708;BME280;17458;48.958;8.284;2023-11-22T01:56:59;100983.47;;;8.05;73.83
30708;BME280;17458;48.958;8.284;2023-11-22T01:59:45;100989.81;;;8.07;73.65
30708;BME280;17458;48.958;8.284;2023-11-22T02:02:33;101002.84;;;8.17;74.16
30708;BME280;17458;48.958;8.284;2023-11-22T02:05:17;100999.13;;;8.27;73.72
30708;BME280;17458;48.958;8.284;2023-11-22T02:08:02;101006.41;;;8.17;73.42
30708;BME280;17458;48.958;8.284;2023-11-22T02:10:57;101013.75;;;8.46;72.43
30708;BME280;17458;48.958;8.284;2023-11-22T02:13:41;101015.56;;;8.09;73.47
30708;BME280;17458;48.958;8.284;2023-11-22T02:16:25;101015.00;;;8.27;72.87
30708;BME280;17458;48.958;8.284;2023-11-22T02:19:17;101016.59;;;8.36;73.45
30708;BME280;17458;48.958;8.284;2023-11-22T02:22:01;101026.66;;;8.17;73.56
30708;BME280;17458;48.958;8.284;2023-11-22T02:24:46;101029.59;;;8.08;73.61
30708;BME280;17458;48.958;8.284;2023-11-22T02:27:30;101039.94;;;8.30;73.31
30708;BME280;17458;48.958;8.284;2023-11-22T02:30:14;101044.09;;;8.02;73.44
30708;BME280;17458;48.958;8.284;2023-11-22T02:32:59;101050.47;;;8.17;73.54
30708;BME280;17458;48.958;8.284;2023-11-22T02:35:43;101052.59;;;8.09;72.67
30708;BME280;17458;48.958;8.284;2023-11-22T02:38:28;101049.78;;;8.19;72.66
30708;BME280;17458;48.958;8.284;2023-11-22T02:41:13;101058.44;;;8.30;72.09
30708;BME280;17458;48.958;8.284;2023-11-22T02:43:57;101063.88;;;8.07;72.99
30708;BME280;17458;48.958;8.284;2023-11-22T02:46:41;101078.13;;;8.09;72.36
30708;BME280;17458;48.958;8.284;2023-11-22T02:49:25;101078.78;;;8.68;70.78
30708;BME280;17458;48.958;8.284;2023-11-22T02:52:09;101080.50;;;8.17;70.30
30708;BME280;17458;48.958;8.284;2023-11-22T02:54:55;101087.63;;;8.18;70.87
30708;BME280;17458;48.958;8.284;2023-11-22T02:57:40;101105.03;;;8.03;70.74
30708;BME280;17458;48.958;8.284;2023-11-22T03:00:24;101093.50;;;8.14;70.79
30708;BME280;17458;48.958;8.284;2023-11-22T03:03:08;101095.22;;;8.50;69.96
30708;BME280;17458;48.958;8.284;2023-11-22T03:05:55;101094.75;;;8.56;69.48
30708;BME280;17458;48.958;8.284;2023-11-22T03:08:41;101092.34;;;8.47;69.42
30708;BME280;17458;48.958;8.284;2023-11-22T03:11:26;101095.97;;;8.36;68.84
30708;BME280;17458;48.958;8.284;2023-11-22T03:14:11;101100.84;;;8.55;68.97
30708;BME280;17458;48.958;8.284;2023-11-22T03:16:56;101094.06;;;8.47;68.86
30708;BME280;17458;48.958;8.284;2023-11-22T03:19:40;101088.25;;;8.39;69.15
30708;BME280;17458;48.958;8.284;2023-11-22T03:22:25;101091.31;;;8.45;69.38
30708;BME280;17458;48.958;8.284;2023-11-22T03:25:10;101097.13;;;8.28;69.22
30708;BME280;17458;48.958;8.284;2023-11-22T03:27:54;101096.03;;;8.49;69.22
30708;BME280;17458;48.958;8.284;2023-11-22T03:30:37;101090.00;;;8.39;68.89
30708;BME280;17458;48.958;8.284;2023-11-22T03:33:23;101100.16;;;8.71;68.21
30708;BME280;17458;48.958;8.284;2023-11-22T03:36:07;101110.97;;;8.24;69.82
30708;BME280;17458;48.958;8.284;2023-11-22T03:38:51;101116.16;;;8.47;70.00
30708;BME280;17458;48.958;8.284;2023-11-22T03:41:36;101123.25;;;8.35;69.60
30708;BME280;17458;48.958;8.284;2023-11-22T03:44:20;101132.66;;;8.07;70.32
30708;BME280;17458;48.958;8.284;2023-11-22T03:47:05;101130.03;;;8.57;69.65
30708;BME280;17458;48.958;8.284;2023-11-22T03:49:49;101130.50;;;8.38;69.43
30708;BME280;17458;48.958;8.284;2023-11-22T03:52:33;101129.13;;;7.95;69.42
30708;BME280;17458;48.958;8.284;2023-11-22T03:55:17;101127.44;;;7.60;70.21
30708;BME280;17458;48.958;8.284;2023-11-22T03:58:01;101143.63;;;7.76;69.44
30708;BME280;17458;48.958;8.284;2023-11-22T04:00:45;101135.38;;;7.60;69.26
30708;BME280;17458;48.958;8.284;2023-11-22T04:03:29;101147.09;;;7.64;69.18
30708;BME280;17458;48.958;8.284;2023-11-22T04:06:13;101152.78;;;8.05;68.52
30708;BME280;17458;48.958;8.284;2023-11-22T04:08:58;101145.47;;;7.77;68.49
30708;BME280;17458;48.958;8.284;2023-11-22T04:11:43;101150.66;;;7.64;68.04
30708;BME280;17458;48.958;8.284;2023-11-22T04:14:27;101159.75;;;7.44;67.94
30708;BME280;17458;48.958;8.284;2023-11-22T04:17:11;101153.78;;;7.24;68.73
30708;BME280;17458;48.958;8.284;2023-11-22T04:19:55;101154.34;;;7.31;68.00
30708;BME280;17458;48.958;8.284;2023-11-22T04:22:44;101161.81;;;7.25;68.12
30708;BME280;17458;48.958;8.284;2023-11-22T04:25:31;101168.94;;;7.15;68.56
30708;BME280;17458;48.958;8.284;2023-11-22T04:28:15;101174.69;;;7.56;66.70
30708;BME280;17458;48.958;8.284;2023-11-22T04:30:59;101176.41;;;7.20;67.27
30708;BME280;17458;48.958;8.284;2023-11-22T04:33:43;101182.59;;;7.09;67.90
30708;BME280;17458;48.958;8.284;2023-11-22T04:36:27;101192.75;;;6.81;67.68
30708;BME280;17458;48.958;8.284;2023-11-22T04:39:10;101183.50;;;6.64;67.83
30708;BME280;17458;48.958;8.284;2023-11-22T04:41:54;101192.53;;;6.90;66.62
30708;BME280;17458;48.958;8.284;2023-11-22T04:44:38;101202.16;;;6.89;66.31
30708;BME280;17458;48.958;8.284;2023-11-22T04:47:22;101216.81;;;7.19;65.90
30708;BME280;17458;48.958;8.284;2023-11-22T04:50:07;101227.66;;;6.89;65.74
30708;BME280;17458;48.958;8.284;2023-11-22T04:52:51;101237.75;;;6.83;66.08
30708;BME280;17458;48.958;8.284;2023-11-22T04:55:35;101241.50;;;6.53;67.46
30708;BME280;17458;48.958;8.284;2023-11-22T04:58:18;101231.91;;;6.87;66.24
30708;BME280;17458;48.958;8.284;2023-11-22T05:01:02;101239.34;;;6.37;66.67
30708;BME280;17458;48.958;8.284;2023-11-22T05:03:46;101241.25;;;6.50;66.91
30708;BME280;17458;48.958;8.284;2023-11-22T05:06:30;101231.84;;;6.75;66.49
30708;BME280;17458;48.958;8.284;2023-11-22T05:09:14;101237.34;;;7.00;66.19
30708;BME280;17458;48.958;8.284;2023-11-22T05:11:58;101244.69;;;6.27;67.83
30708;BME280;17458;48.958;8.284;2023-11-22T05:14:42;101254.31;;;6.48;68.28
30708;BME280;17458;48.958;8.284;2023-11-22T05:17:29;101256.41;;;6.74;67.29
30708;BME280;17458;48.958;8.284;2023-11-22T05:20:13;101254.19;;;6.03;69.03
30708;BME280;17458;48.958;8.284;2023-11-22T05:22:57;101265.59;;;5.72;69.94
30708;BME280;17458;48.958;8.284;2023-11-22T05:25:41;101258.34;;;6.11;68.88
30708;BME280;17458;48.958;8.284;2023-11-22T05:28:25;101251.28;;;6.00;69.39
30708;BME280;17458;48.958;8.284;2023-11-22T05:31:09;101258.34;;;6.11;69.25
30708;BME280;17458;48.958;8.284;2023-11-22T05:33:54;101260.22;;;6.34;68.23
30708;BME280;17458;48.958;8.284;2023-11-22T05:36:38;101268.31;;;6.47;67.84
30708;BME280;17458;48.958;8.284;2023-11-22T05:39:22;101266.19;;;6.31;68.26
30708;BME280;17458;48.958;8.284;2023-11-22T05:42:06;101268.50;;;6.17;68.97
30708;BME280;17458;48.958;8.284;2023-11-22T05:44:50;101285.56;;;5.80;70.05
30708;BME280;17458;48.958;8.284;2023-11-22T05:47:34;101276.28;;;6.05;69.30
30708;BME280;17458;48.958;8.284;2023-11-22T05:50:18;101269.41;;;6.17;68.66
30708;BME280;17458;48.958;8.284;2023-11-22T05:53:02;101276.34;;;5.95;68.23
30708;BME280;17458;48.958;8.284;2023-11-22T05:55:48;101284.28;;;6.27;67.61
30708;BME280;17458;48.958;8.284;2023-11-22T05:58:32;101302.31;;;6.00;68.32
30708;BME280;17458;48.958;8.284;2023-11-22T06:01:16;101303.56;;;6.16;67.77
30708;BME280;17458;48.958;8.284;2023-11-22T06:04:00;101299.63;;;6.11;66.61
30708;BME280;17458;48.958;8.284;2023-11-22T06:06:43;101320.72;;;6.11;67.01
30708;BME280;17458;48.958;8.284;2023-11-22T06:09:27;101314.06;;;6.26;66.06
30708;BME280;17458;48.958;8.284;2023-11-22T06:12:12;101314.97;;;5.84;66.55
30708;BME280;17458;48.958;8.284;2023-11-22T06:14:56;101335.28;;;5.95;65.75
30708;BME280;17458;48.958;8.284;2023-11-22T06:17:40;101332.72;;;6.07;65.40
30708;BME280;17458;48.958;8.284;2023-11-22T06:20:24;101329.59;;;6.33;64.79
30708;BME280;17458;48.958;8.284;2023-11-22T06:23:11;101338.03;;;6.39;64.78
30708;BME280;17458;48.958;8.284;2023-11-22T06:25:55;101344.50;;;6.00;64.73
30708;BME280;17458;48.958;8.284;2023-11-22T06:28:39;101346.72;;;5.86;64.78
30708;BME280;17458;48.958;8.284;2023-11-22T06:31:23;101340.66;;;5.77;65.20
30708;BME280;17458;48.958;8.284;2023-11-22T06:34:07;101340.28;;;5.82;64.80
30708;BME280;17458;48.958;8.284;2023-11-22T06:36:51;101345.69;;;5.74;65.11
30708;BME280;17458;48.958;8.284;2023-11-22T06:39:36;101342.91;;;5.92;63.80
30708;BME280;17458;48.958;8.284;2023-11-22T06:42:20;101355.72;;;5.67;64.99
30708;BME280;17458;48.958;8.284;2023-11-22T06:45:06;101360.94;;;6.08;63.58
30708;BME280;17458;48.958;8.284;2023-11-22T06:47:53;101360.34;;;5.60;64.53
30708;BME280;17458;48.958;8.284;2023-11-22T06:50:37;101373.41;;;5.89;63.39
30708;BME280;17458;48.958;8.284;2023-11-22T06:53:21;101385.34;;;5.65;63.24
30708;BME280;17458;48.958;8.284;2023-11-22T06:56:05;101385.22;;;5.84;62.62
30708;BME280;17458;48.958;8.284;2023-11-22T06:58:49;101387.06;;;5.85;62.33
30708;BME280;17458;48.958;8.284;2023-11-22T07:01:34;101384.44;;;5.44;61.61
30708;BME280;17458;48.958;8.284;2023-11-22T07:04:18;101387.34;;;5.47;61.64
30708;BME280;17458;48.958;8.284;2023-11-22T07:07:02;101404.84;;;5.26;61.72
30708;BME280;17458;48.958;8.284;2023-11-22T07:09:48;101414.97;;;5.22;61.03
30708;BME280;17458;48.958;8.284;2023-11-22T07:12:33;101410.38;;;5.50;60.34
30708;BME280;17458;48.958;8.284;2023-11-22T07:15:18;101414.22;;;5.53;60.38
30708;BME280;17458;48.958;8.284;2023-11-22T07:18:02;101410.66;;;5.53;59.20
30708;BME280;17458;48.958;8.284;2023-11-22T07:20:47;101413.16;;;5.72;59.84
30708;BME280;17458;48.958;8.284;2023-11-22T07:23:32;101402.34;;;5.79;58.63
30708;BME280;17458;48.958;8.284;2023-11-22T07:26:16;101410.94;;;5.56;58.40
30708;BME280;17458;48.958;8.284;2023-11-22T07:29:00;101424.66;;;5.92;58.60
30708;BME280;17458;48.958;8.284;2023-11-22T07:31:44;101432.41;;;5.91;58.10
30708;BME280;17458;48.958;8.284;2023-11-22T07:34:28;101431.63;;;5.72;59.05
30708;BME280;17458;48.958;8.284;2023-11-22T07:37:12;101435.84;;;5.69;58.97
30708;BME280;17458;48.958;8.284;2023-11-22T07:39:57;101438.59;;;5.71;58.24
30708;BME280;17458;48.958;8.284;2023-11-22T07:42:41;101435.31;;;5.94;58.30
30708;BME280;17458;48.958;8.284;2023-11-22T07:45:27;101439.53;;;5.72;58.38
30708;BME280;17458;48.958;8.284;2023-11-22T07:48:12;101440.06;;;5.88;58.44
30708;BME280;17458;48.958;8.284;2023-11-22T07:50:56;101442.03;;;5.90;58.15
30708;BME280;17458;48.958;8.284;2023-11-22T07:53:41;101449.00;;;5.80;57.71
30708;BME280;17458;48.958;8.284;2023-11-22T07:56:25;101443.47;;;5.66;58.09
30708;BME280;17458;48.958;8.284;2023-11-22T07:59:10;101447.94;;;5.57;58.80
30708;BME280;17458;48.958;8.284;2023-11-22T08:01:56;101448.88;;;5.78;57.94
30708;BME280;17458;48.958;8.284;2023-11-22T08:04:41;101447.84;;;5.96;57.97
30708;BME280;17458;48.958;8.284;2023-11-22T08:07:25;101449.84;;;5.89;56.87
30708;BME280;17458;48.958;8.284;2023-11-22T08:10:10;101461.13;;;5.78;57.52
30708;BME280;17458;48.958;8.284;2023-11-22T08:13:02;101461.13;;;6.18;57.14
30708;BME280;17458;48.958;8.284;2023-11-22T08:15:47;101452.84;;;5.83;57.98
30708;BME280;17458;48.958;8.284;2023-11-22T08:18:30;101453.72;;;5.63;57.44
30708;BME280;17458;48.958;8.284;2023-11-22T08:21:15;101456.16;;;6.01;56.76
30708;BME280;17458;48.958;8.284;2023-11-22T08:23:59;101454.09;;;6.49;56.51
30708;BME280;17458;48.958;8.284;2023-11-22T08:26:43;101453.66;;;5.92;55.85
30708;BME280;17458;48.958;8.284;2023-11-22T08:29:28;101451.13;;;6.04;55.42
30708;BME280;17458;48.958;8.284;2023-11-22T08:32:11;101442.72;;;6.50;55.26
30708;BME280;17458;48.958;8.284;2023-11-22T08:34:55;101455.06;;;6.29;54.49
30708;BME280;17458;48.958;8.284;2023-11-22T08:37:41;101453.50;;;6.31;53.63
30708;BME280;17458;48.958;8.284;2023-11-22T08:40:25;101458.38;;;6.27;53.74
30708;BME280;17458;48.958;8.284;2023-11-22T08:43:09;101458.00;;;6.12;54.10
30708;BME280;17458;48.958;8.284;2023-11-22T08:45:53;101457.06;;;6.12;53.87
30708;BME280;17458;48.958;8.284;2023-11-22T08:48:37;101455.38;;;6.02;53.43
30708;BME280;17458;48.958;8.284;2023-11-22T08:51:21;101456.03;;;5.89;53.77
30708;BME280;17458;48.958;8.284;2023-11-22T08:54:05;101464.59;;;6.17;53.86
30708;BME280;17458;48.958;8.284;2023-11-22T08:56:49;101461.13;;;6.18;52.78
30708;BME280;17458;48.958;8.284;2023-11-22T08:59:33;101468.94;;;6.17;53.73
30708;BME280;17458;48.958;8.284;2023-11-22T09:02:21;101472.81;;;6.52;53.31
30708;BME280;17458;48.958;8.284;2023-11-22T09:05:06;101466.56;;;6.30;53.37
30708;BME280;17458;48.958;8.284;2023-11-22T09:07:56;101467.38;;;6.61;52.97
30708;BME280;17458;48.958;8.284;2023-11-22T09:10:42;101465.50;;;6.70;52.10
30708;BME280;17458;48.958;8.284;2023-11-22T09:13:26;101456.22;;;6.43;51.50
30708;BME280;17458;48.958;8.284;2023-11-22T09:16:10;101469.56;;;6.87;51.74
30708;BME280;17458;48.958;8.284;2023-11-22T09:18:56;101477.69;;;6.90;52.02
30708;BME280;17458;48.958;8.284;2023-11-22T09:21:41;101478.06;;;6.72;52.93
30708;BME280;17458;48.958;8.284;2023-11-22T09:24:25;101482.88;;;6.36;53.46
30708;BME280;17458;48.958;8.284;2023-11-22T09:27:10;101491.59;;;6.87;53.02
30708;BME280;17458;48.958;8.284;2023-11-22T09:29:59;101486.59;;;7.12;52.72
30708;BME280;17458;48.958;8.284;2023-11-22T09:32:44;101485.59;;;7.00;52.57
30708;BME280;17458;48.958;8.284;2023-11-22T09:35:29;101499.63;;;6.89;53.38
30708;BME280;17458;48.958;8.284;2023-11-22T09:38:15;101507.69;;;6.28;56.19
30708;BME280;17458;48.958;8.284;2023-11-22T09:40:59;101518.97;;;6.67;53.66
30708;BME280;17458;48.958;8.284;2023-11-22T09:43:43;101510.47;;;6.82;54.39
30708;BME280;17458;48.958;8.284;2023-11-22T09:46:30;101501.47;;;6.90;54.66
30708;BME280;17458;48.958;8.284;2023-11-22T09:49:20;101483.72;;;7.53;53.81
30708;BME280;17458;48.958;8.284;2023-11-22T09:52:08;101492.75;;;6.91;53.64
30708;BME280;17458;48.958;8.284;2023-11-22T09:54:56;101491.16;;;6.93;54.64
30708;BME280;17458;48.958;8.284;2023-11-22T09:57:40;101479.06;;;7.38;53.48
30708;BME280;17458;48.958;8.284;2023-11-22T10:00:29;101487.66;;;7.58;53.04
30708;BME280;17458;48.958;8.284;2023-11-22T10:03:14;101498.28;;;7.47;53.15
30708;BME280;17458;48.958;8.284;2023-11-22T10:05:59;101501.72;;;7.68;53.45
30708;BME280;17458;48.958;8.284;2023-11-22T10:08:44;101503.44;;;7.46;53.76
30708;BME280;17458;48.958;8.284;2023-11-22T10:11:31;101499.13;;;7.58;53.53
30708;BME280;17458;48.958;8.284;2023-11-22T10:14:24;101491.91;;;7.89;52.54
30708;BME280;17458;48.958;8.284;2023-11-22T10:17:11;101504.09;;;7.22;53.39
30708;BME280;17458;48.958;8.284;2023-11-22T10:19:55;101518.25;;;7.66;53.30
30708;BME280;17458;48.958;8.284;2023-11-22T10:22:46;101517.88;;;7.61;53.59
30708;BME280;17458;48.958;8.284;2023-11-22T10:25:31;101524.25;;;7.97;53.15
30708;BME280;17458;48.958;8.284;2023-11-22T10:28:19;101518.06;;;7.74;53.08
30708;BME280;17458;48.958;8.284;2023-11-22T10:31:07;101525.53;;;8.02;53.65
30708;BME280;17458;48.958;8.284;2023-11-22T10:33:52;101522.53;;;7.97;53.26
30708;BME280;17458;48.958;8.284;2023-11-22T10:36:37;101524.25;;;7.31;53.58
30708;BME280;17458;48.958;8.284;2023-11-22T10:39:21;101530.84;;;7.58;53.07
30708;BME280;17458;48.958;8.284;2023-11-22T10:42:07;101534.91;;;7.87;53.02
30708;BME280;17458;48.958;8.284;2023-11-22T10:44:55;101543.13;;;7.14;54.19
30708;BME280;17458;48.958;8.284;2023-11-22T10:47:40;101536.34;;;7.18;53.58
30708;BME280;17458;48.958;8.284;2023-11-22T10:50:26;101538.97;;;7.28;52.92
30708;BME280;17458;48.958;8.284;2023-11-22T10:53:15;101549.97;;;7.44;53.11
30708;BME280;17458;48.958;8.284;2023-11-22T10:56:07;101560.63;;;7.56;52.91
30708;BME280;17458;48.958;8.284;2023-11-22T10:59:02;101555.88;;;7.73;52.70
30708;BME280;17458;48.958;8.284;2023-11-22T11:01:49;101570.44;;;7.46;52.34
30708;BME280;17458;48.958;8.284;2023-11-22T11:04:51;101563.69;;;7.94;51.94
30708;BME280;17458;48.958;8.284;2023-11-22T11:07:40;101564.69;;;7.62;53.63
30708;BME280;17458;48.958;8.284;2023-11-22T11:10:25;101567.13;;;7.49;53.28
30708;BME280;17458;48.958;8.284;2023-11-22T11:13:10;101568.69;;;7.57;51.77
30708;BME280;17458;48.958;8.284;2023-11-22T11:15:54;101562.22;;;7.75;51.81
30708;BME280;17458;48.958;8.284;2023-11-22T11:18:39;101568.09;;;7.39;52.54
30708;BME280;17458;48.958;8.284;2023-11-22T11:21:25;101566.28;;;7.60;52.52
30708;BME280;17458;48.958;8.284;2023-11-22T11:24:09;101581.22;;;7.60;51.90
30708;BME280;17458;48.958;8.284;2023-11-22T11:26:53;101587.25;;;7.91;51.94
30708;BME280;17458;48.958;8.284;2023-11-22T11:29:38;101590.44;;;8.08;52.54
30708;BME280;17458;48.958;8.284;2023-11-22T11:32:31;101593.22;;;7.88;52.77
30708;BME280;17458;48.958;8.284;2023-11-22T11:35:39;101585.34;;;8.55;50.89
30708;BME280;17458;48.958;8.284;2023-11-22T11:38:30;101585.28;;;8.43;51.33
30708;BME280;17458;48.958;8.284;2023-11-22T11:41:16;101586.66;;;9.07;50.40
30708;BME280;17458;48.958;8.284;2023-11-22T11:44:05;101588.53;;;8.39;51.15
30708;BME280;17458;48.958;8.284;2023-11-22T11:46:51;101602.34;;;7.70;52.29
30708;BME280;17458;48.958;8.284;2023-11-22T11:49:37;101585.09;;;8.30;51.92
30708;BME280;17458;48.958;8.284;2023-11-22T11:52:24;101586.66;;;7.83;52.96
30708;BME280;17458;48.958;8.284;2023-11-22T11:55:09;101587.25;;;7.91;52.31
30708;BME280;17458;48.958;8.284;2023-11-22T11:57:56;101606.81;;;7.71;52.31
30708;BME280;17458;48.958;8.284;2023-11-22T12:00:40;101593.50;;;8.25;51.49
30708;BME280;17458;48.958;8.284;2023-11-22T12:03:24;101594.75;;;7.53;52.68
30708;BME280;17458;48.958;8.284;2023-11-22T12:06:08;101607.03;;;7.52;52.00
30708;BME280;17458;48.958;8.284;2023-11-22T12:08:52;101618.69;;;7.02;53.55
30708;BME280;17458;48.958;8.284;2023-11-22T12:11:36;101615.19;;;7.23;52.61
30708;BME280;17458;48.958;8.284;2023-11-22T12:14:23;101611.47;;;7.31;53.71
30708;BME280;17458;48.958;8.284;2023-11-22T12:17:07;101629.81;;;7.40;53.16
30708;BME280;17458;48.958;8.284;2023-11-22T12:19:52;101623.63;;;7.61;52.56
30708;BME280;17458;48.958;8.284;2023-11-22T12:22:36;101636.56;;;7.68;51.82
30708;BME280;17458;48.958;8.284;2023-11-22T12:25:20;101621.16;;;7.53;52.48
30708;BME280;17458;48.958;8.284;2023-11-22T12:28:05;101620.84;;;7.38;52.27
30708;BME280;17458;48.958;8.284;2023-11-22T12:30:48;101614.63;;;7.37;51.41
30708;BME280;17458;48.958;8.284;2023-11-22T12:33:38;101619.72;;;7.78;51.10
30708;BME280;17458;48.958;8.284;2023-11-22T12:36:23;101615.56;;;7.60;51.29
30708;BME280;17458;48.958;8.284;2023-11-22T12:39:09;101610.09;;;7.46;50.92
30708;BME280;17458;48.958;8.284;2023-11-22T12:42:00;101618.59;;;7.64;51.00
30708;BME280;17458;48.958;8.284;2023-11-22T12:44:51;101618.53;;;8.18;50.70
30708;BME280;17458;48.958;8.284;2023-11-22T12:47:38;101609.69;;;7.52;51.48
30708;BME280;17458;48.958;8.284;2023-11-22T12:50:37;101606.91;;;7.72;51.23
30708;BME280;17458;48.958;8.284;2023-11-22T12:53:23;101595.72;;;7.65;50.97
30708;BME280;17458;48.958;8.284;2023-11-22T12:56:09;101589.72;;;7.45;51.58
30708;BME280;17458;48.958;8.284;2023-11-22T12:58:55;101580.66;;;7.64;50.59
30708;BME280;17458;48.958;8.284;2023-11-22T13:01:40;101582.59;;;7.44;51.05
30708;BME280;17458;48.958;8.284;2023-11-22T13:04:27;101587.66;;;7.41;50.88
30708;BME280;17458;48.958;8.284;2023-11-22T13:07:12;101592.22;;;7.22;51.16
30708;BME280;17458;48.958;8.284;2023-11-22T13:09:56;101595.47;;;6.98;51.67
30708;BME280;17458;48.958;8.284;2023-11-22T13:12:40;101598.91;;;7.61;51.39
30708;BME280;17458;48.958;8.284;2023-11-22T13:15:24;101598.81;;;7.81;51.16
30708;BME280;17458;48.958;8.284;2023-11-22T13:18:10;101594.31;;;7.80;50.52
30708;BME280;17458;48.958;8.284;2023-11-22T13:20:54;101585.41;;;7.68;50.13
30708;BME280;17458;48.958;8.284;2023-11-22T13:23:38;101599.88;;;7.19;51.91
30708;BME280;17458;48.958;8.284;2023-11-22T13:26:22;101594.81;;;7.32;51.25
30708;BME280;17458;48.958;8.284;2023-11-22T13:29:06;101600.75;;;7.72;51.23
30708;BME280;17458;48.958;8.284;2023-11-22T13:31:50;101603.78;;;7.34;51.54
30708;BME280;17458;48.958;8.284;2023-11-22T13:34:35;101603.66;;;7.43;50.86
30708;BME280;17458;48.958;8.284;2023-11-22T13:37:23;101610.53;;;7.63;52.04
30708;BME280;17458;48.958;8.284;2023-11-22T13:40:12;101598.75;;;7.91;51.02
30708;BME280;17458;48.958;8.284;2023-11-22T13:42:59;101596.91;;;7.68;51.01
30708;BME280;17458;48.958;8.284;2023-11-22T13:45:43;101589.28;;;7.83;50.93
30708;BME280;17458;48.958;8.284;2023-11-22T13:48:29;101587.00;;;8.09;50.87
30708;BME280;17458;48.958;8.284;2023-11-22T13:51:14;101613.22;;;7.85;50.27
30708;BME280;17458;48.958;8.284;2023-11-22T13:53:58;101612.97;;;7.50;51.59
30708;BME280;17458;48.958;8.284;2023-11-22T13:56:42;101607.75;;;7.93;50.24
30708;BME280;17458;48.958;8.284;2023-11-22T13:59:26;101615.94;;;7.00;51.52
30708;BME280;17458;48.958;8.284;2023-11-22T14:02:11;101606.91;;;7.72;50.35
30708;BME280;17458;48.958;8.284;2023-11-22T14:04:55;101591.63;;;7.90;50.08
30708;BME280;17458;48.958;8.284;2023-11-22T14:07:39;101581.03;;;8.12;50.09
30708;BME280;17458;48.958;8.284;2023-11-22T14:10:23;101572.72;;;8.07;50.41
30708;BME280;17458;48.958;8.284;2023-11-22T14:13:07;101583.81;;;8.13;50.17
30708;BME280;17458;48.958;8.284;2023-11-22T14:15:52;101581.41;;;8.28;49.61
30708;BME280;17458;48.958;8.284;2023-11-22T14:18:36;101585.00;;;8.62;48.94
30708;BME280;17458;48.958;8.284;2023-11-22T14:21:20;101584.38;;;8.43;48.75
30708;BME280;17458;48.958;8.284;2023-11-22T14:24:04;101586.28;;;8.67;48.89
30708;BME280;17458;48.958;8.284;2023-11-22T14:26:48;101588.59;;;8.86;48.05
30708;BME280;17458;48.958;8.284;2023-11-22T14:29:33;101587.25;;;8.46;49.18
30708;BME280;17458;48.958;8.284;2023-11-22T14:32:18;101587.91;;;8.32;49.42
30708;BME280;17458;48.958;8.284;2023-11-22T14:35:04;101596.72;;;7.77;49.64